Time;durP1;ratioP1;P1;durP2;ratioP2;P2;SDS_P1;SDS_P2;PMS_P1;PMS_P2;Temp;Humidity;BMP_temperature;BMP_pressure;BME280_temperature;BME280_humidity;BME280_pressure;Samples;Min_cycle;Max_cycle;Signal;HPM_P1;HPM_P2
2021/07/10 00:00:35;;;;;;;13.77;9.93;;;12.60;99.90;;;;;;4988358;28;20050;-86
2021/07/10 00:03:02;;;;;;;12.18;9.32;;;12.60;99.90;;;;;;4990661;28;20051;-85
2021/07/10 00:05:29;;;;;;;11.27;7.68;;;12.60;99.90;;;;;;4990407;28;20043;-86
2021/07/10 00:07:55;;;;;;;9.85;8.82;;;12.60;99.90;;;;;;4989644;28;20067;-86
2021/07/10 00:10:22;;;;;;;12.95;8.20;;;12.60;99.90;;;;;;4988995;28;20066;-86
2021/07/10 00:12:49;;;;;;;10.10;9.10;;;12.60;99.90;;;;;;4990188;28;20086;-86
2021/07/10 00:15:20;;;;;;;7.80;7.20;;;12.50;99.90;;;;;;4988106;28;20082;-86
2021/07/10 00:17:47;;;;;;;8.23;7.53;;;12.50;99.90;;;;;;4990054;28;20051;-86
2021/07/10 00:20:27;;;;;;;7.18;5.97;;;12.40;99.90;;;;;;4989404;28;20085;-86
2021/07/10 00:22:53;;;;;;;8.02;6.03;;;12.40;99.90;;;;;;4988863;28;20078;-86
2021/07/10 00:25:51;;;;;;;7.05;6.35;;;12.20;99.90;;;;;;4989354;28;20047;-86
2021/07/10 00:28:17;;;;;;;8.27;6.70;;;12.00;99.90;;;;;;4988651;28;20054;-86
2021/07/10 00:30:44;;;;;;;9.10;6.35;;;11.80;99.90;;;;;;4988865;28;20042;-86
2021/07/10 00:33:11;;;;;;;5.55;5.18;;;11.80;99.90;;;;;;4987032;28;20074;-86
2021/07/10 00:35:39;;;;;;;7.53;6.60;;;11.70;99.90;;;;;;4987571;28;20051;-86
2021/07/10 00:38:06;;;;;;;7.13;6.47;;;11.60;99.90;;;;;;4987126;28;20042;-86
2021/07/10 00:40:33;;;;;;;8.07;7.30;;;11.70;99.90;;;;;;4987658;28;20047;-86
2021/07/10 00:43:00;;;;;;;6.63;6.22;;;11.70;99.90;;;;;;4988404;28;20049;-86
2021/07/10 00:45:27;;;;;;;8.88;7.85;;;11.50;99.90;;;;;;4986086;28;20065;-86
2021/07/10 00:47:53;;;;;;;11.70;8.68;;;11.50;99.90;;;;;;4986716;28;20075;-86
2021/07/10 00:50:24;;;;;;;15.20;8.50;;;11.50;99.90;;;;;;4987180;28;20485;-86
2021/07/10 00:53:06;;;;;;;8.45;7.75;;;11.50;99.90;;;;;;4985931;28;20046;-86
2021/07/10 00:55:33;;;;;;;10.70;8.38;;;11.50;99.90;;;;;;4987846;28;20418;-86
2021/07/10 00:58:01;;;;;;;9.57;8.57;;;11.50;99.90;;;;;;4987490;28;20047;-86
2021/07/10 01:00:44;;;;;;;8.05;7.25;;;11.50;99.90;;;;;;4979926;28;20063;-86
2021/07/10 01:03:14;;;;;;;8.05;7.35;;;11.50;99.90;;;;;;4986039;28;20498;-86
2021/07/10 01:05:41;;;;;;;12.60;9.48;;;11.40;99.90;;;;;;4985708;28;20458;-87
2021/07/10 01:08:07;;;;;;;8.63;7.70;;;11.40;99.90;;;;;;4987383;28;20054;-86
2021/07/10 01:10:35;;;;;;;11.40;9.48;;;11.40;99.90;;;;;;4986192;28;20070;-86
2021/07/10 01:13:02;;;;;;;10.07;9.07;;;11.30;99.90;;;;;;4987541;28;20472;-86
2021/07/10 01:15:39;;;;;;;10.55;9.27;;;11.30;99.90;;;;;;4991515;28;20035;-85
2021/07/10 01:18:06;;;;;;;9.68;8.50;;;11.20;99.90;;;;;;4984525;28;20054;-86
2021/07/10 01:20:32;;;;;;;10.38;9.40;;;11.20;99.90;;;;;;4985043;28;20467;-86
2021/07/10 01:22:59;;;;;;;9.20;8.30;;;11.20;99.90;;;;;;4985336;28;20469;-86
2021/07/10 01:25:26;;;;;;;10.82;8.48;;;11.20;99.90;;;;;;4986795;28;20081;-86
2021/07/10 01:27:55;;;;;;;10.35;8.50;;;11.30;99.90;;;;;;4987297;28;20058;-86
2021/07/10 01:30:22;;;;;;;9.52;8.63;;;11.20;99.90;;;;;;4987491;28;20051;-86
2021/07/10 01:32:51;;;;;;;11.32;8.45;;;11.20;99.90;;;;;;4987361;28;20051;-86
2021/07/10 01:35:18;;;;;;;8.55;7.75;;;11.20;99.90;;;;;;4987315;28;20114;-86
2021/07/10 01:37:45;;;;;;;15.10;9.07;;;11.10;99.90;;;;;;4987602;28;20051;-86
2021/07/10 01:40:15;;;;;;;13.13;10.13;;;11.10;99.90;;;;;;4988178;28;20059;-86
2021/07/10 01:42:42;;;;;;;14.68;10.43;;;11.00;99.90;;;;;;4987001;28;20070;-86
2021/07/10 01:45:10;;;;;;;11.82;8.68;;;11.00;99.90;;;;;;4986067;28;20106;-86
2021/07/10 01:47:37;;;;;;;20.83;11.73;;;11.00;99.90;;;;;;4986857;28;20057;-86
2021/07/10 01:50:08;;;;;;;14.85;10.82;;;11.10;99.90;;;;;;4985811;28;20078;-86
2021/07/10 01:52:36;;;;;;;11.98;10.20;;;11.20;99.90;;;;;;4985196;28;20088;-86
2021/07/10 01:55:06;;;;;;;11.63;9.13;;;11.20;99.90;;;;;;4985899;28;20146;-87
2021/07/10 01:57:32;;;;;;;8.82;8.02;;;11.00;99.90;;;;;;4990831;28;20065;-86
2021/07/10 01:59:59;;;;;;;13.02;9.43;;;11.00;99.90;;;;;;4989933;28;20050;-85
2021/07/10 02:02:26;;;;;;;8.95;8.15;;;10.90;99.90;;;;;;4993034;28;20053;-86
2021/07/10 02:04:53;;;;;;;16.75;9.77;;;10.80;99.90;;;;;;4994756;28;20038;-86
2021/07/10 02:07:20;;;;;;;8.77;7.90;;;10.80;99.90;;;;;;4986096;28;20047;-86
2021/07/10 02:09:47;;;;;;;9.35;8.20;;;10.80;99.90;;;;;;4984934;28;20062;-86
2021/07/10 02:12:14;;;;;;;18.95;10.48;;;10.70;99.90;;;;;;4982380;28;20058;-86
2021/07/10 02:14:41;;;;;;;16.98;10.52;;;10.60;99.90;;;;;;4981140;28;20074;-86
2021/07/10 02:17:08;;;;;;;14.48;11.07;;;10.60;99.90;;;;;;4982255;28;20082;-86
2021/07/10 02:19:35;;;;;;;11.95;9.90;;;10.60;99.90;;;;;;4982808;28;20114;-86
2021/07/10 02:22:04;;;;;;;9.43;8.57;;;10.60;99.90;;;;;;4982280;28;20074;-86
2021/07/10 02:24:31;;;;;;;14.50;9.38;;;10.60;99.90;;;;;;4982078;28;20054;-86
2021/07/10 02:26:58;;;;;;;15.20;10.80;;;10.60;99.90;;;;;;4980560;28;20074;-86
2021/07/10 02:29:25;;;;;;;11.07;8.75;;;10.60;99.90;;;;;;4983645;28;20058;-86
2021/07/10 02:31:52;;;;;;;9.65;8.75;;;10.60;99.90;;;;;;4980866;28;20138;-87
2021/07/10 02:34:19;;;;;;;11.20;8.95;;;10.70;99.90;;;;;;4983419;28;20073;-85
2021/07/10 02:36:46;;;;;;;16.42;9.90;;;10.70;99.90;;;;;;4979045;28;20058;-86
2021/07/10 02:39:13;;;;;;;9.80;8.60;;;10.60;99.90;;;;;;4979178;28;20089;-86
2021/07/10 02:41:39;;;;;;;11.10;9.75;;;10.60;99.90;;;;;;4980030;28;20527;-86
2021/07/10 02:44:06;;;;;;;10.13;9.13;;;10.60;99.90;;;;;;4980306;28;20511;-86
2021/07/10 02:46:33;;;;;;;15.55;11.88;;;10.70;99.90;;;;;;4981975;28;20086;-86
2021/07/10 02:49:01;;;;;;;28.73;15.15;;;10.60;99.90;;;;;;4981998;28;20055;-86
2021/07/10 02:51:28;;;;;;;19.30;12.95;;;10.70;99.90;;;;;;4983884;28;20132;-86
2021/07/10 02:53:55;;;;;;;15.55;12.68;;;10.60;99.90;;;;;;4984399;28;20134;-86
2021/07/10 02:56:23;;;;;;;14.70;11.90;;;10.70;99.90;;;;;;4985541;28;20059;-85
2021/07/10 02:58:51;;;;;;;13.00;11.07;;;10.70;99.90;;;;;;4984212;28;20066;-86
2021/07/10 03:01:19;;;;;;;14.48;11.15;;;10.70;99.90;;;;;;4983724;28;20488;-86
2021/07/10 03:03:47;;;;;;;12.20;10.68;;;10.70;99.90;;;;;;4983417;28;20049;-86
2021/07/10 03:06:14;;;;;;;13.45;10.40;;;10.70;99.90;;;;;;4983048;28;20074;-86
2021/07/10 03:08:42;;;;;;;12.52;8.50;;;10.60;99.90;;;;;;4982795;28;20074;-86
2021/07/10 03:11:10;;;;;;;8.52;7.75;;;10.60;99.90;;;;;;4983032;28;20043;-86
2021/07/10 03:13:37;;;;;;;10.07;8.25;;;10.60;99.90;;;;;;4982460;28;20063;-86
2021/07/10 03:16:04;;;;;;;16.00;10.00;;;10.50;99.90;;;;;;4983125;28;20054;-86
2021/07/10 03:18:31;;;;;;;21.27;14.23;;;10.50;99.90;;;;;;4982530;28;20081;-86
2021/07/10 03:20:58;;;;;;;29.63;15.50;;;10.60;99.90;;;;;;4982794;28;20047;-85
2021/07/10 03:23:24;;;;;;;20.75;13.18;;;10.60;99.90;;;;;;4984777;28;20520;-85
2021/07/10 03:25:51;;;;;;;24.88;14.82;;;10.70;99.90;;;;;;4987282;28;20100;-86
2021/07/10 03:28:18;;;;;;;32.72;17.63;;;10.90;99.90;;;;;;4986177;28;20063;-86
2021/07/10 03:30:52;;;;;;;28.25;16.10;;;11.00;99.90;;;;;;4987589;28;20142;-86
2021/07/10 03:33:21;;;;;;;21.75;14.13;;;11.10;99.90;;;;;;4986805;28;20137;-85
2021/07/10 03:35:48;;;;;;;16.38;12.15;;;11.10;99.90;;;;;;4986217;28;20228;-85
2021/07/10 03:38:15;;;;;;;11.45;10.20;;;11.20;99.90;;;;;;4985954;28;20051;-86
2021/07/10 03:40:42;;;;;;;11.63;9.70;;;11.20;99.90;;;;;;4986208;28;20070;-86
2021/07/10 03:43:09;;;;;;;8.25;7.55;;;11.10;99.90;;;;;;4985127;28;20042;-86
2021/07/10 03:45:37;;;;;;;8.68;7.78;;;11.10;99.90;;;;;;4983933;28;20053;-86
2021/07/10 03:48:04;;;;;;;8.75;7.30;;;11.00;99.90;;;;;;4984772;28;20122;-86
2021/07/10 03:50:31;;;;;;;9.98;7.80;;;10.90;99.90;;;;;;4986936;28;20062;-86
2021/07/10 03:52:58;;;;;;;12.88;9.13;;;10.90;99.90;;;;;;4985550;28;20078;-86
2021/07/10 03:55:29;;;;;;;12.27;8.45;;;10.90;99.90;;;;;;4977451;28;20051;-85
2021/07/10 03:57:56;;;;;;;10.50;9.38;;;11.00;99.90;;;;;;4975909;28;20133;-85
2021/07/10 04:00:23;;;;;;;9.82;8.35;;;11.00;99.90;;;;;;4986259;28;20063;-86
2021/07/10 04:02:50;;;;;;;13.23;10.90;;;11.10;99.90;;;;;;4985685;28;20054;-86
2021/07/10 04:05:17;;;;;;;16.58;11.23;;;11.10;99.90;;;;;;4987031;28;20051;-86
2021/07/10 04:07:44;;;;;;;16.02;10.65;;;11.20;99.90;;;;;;4985269;28;20054;-86
2021/07/10 04:10:12;;;;;;;12.27;10.43;;;11.20;99.90;;;;;;4988716;28;20055;-85
2021/07/10 04:12:40;;;;;;;15.07;11.70;;;11.30;99.90;;;;;;4988942;28;20078;-85
2021/07/10 04:15:08;;;;;;;18.15;14.43;;;11.40;99.90;;;;;;4987254;28;20115;-85
2021/07/10 04:17:38;;;;;;;20.52;14.52;;;11.50;99.90;;;;;;4987611;28;20082;-85
2021/07/10 04:20:07;;;;;;;25.73;16.35;;;11.70;99.90;;;;;;4987845;28;20495;-85
2021/07/10 04:22:34;;;;;;;37.22;19.55;;;11.80;99.90;;;;;;4987776;28;20058;-85
2021/07/10 04:25:04;;;;;;;33.05;20.23;;;11.90;99.90;;;;;;4987115;28;20046;-85
2021/07/10 04:27:31;;;;;;;47.08;24.13;;;12.00;99.90;;;;;;4987444;28;20047;-86
2021/07/10 04:29:59;;;;;;;12.40;11.07;;;12.20;99.90;;;;;;4991288;28;20050;-84
2021/07/10 04:32:26;;;;;;;10.52;9.55;;;12.20;99.90;;;;;;4994198;28;20085;-84
2021/07/10 04:34:53;;;;;;;8.95;8.13;;;12.10;99.90;;;;;;4992861;28;20047;-85
2021/07/10 04:37:20;;;;;;;7.97;7.28;;;12.10;99.90;;;;;;4986316;28;20085;-85
2021/07/10 04:39:48;;;;;;;9.95;8.90;;;12.10;99.90;;;;;;4985923;28;20124;-85
2021/07/10 04:42:15;;;;;;;19.75;14.05;;;12.10;99.90;;;;;;4986322;28;20043;-85
2021/07/10 04:44:43;;;;;;;9.23;8.52;;;12.20;99.90;;;;;;4984357;28;20054;-86
2021/07/10 04:47:10;;;;;;;8.82;7.93;;;12.20;99.90;;;;;;4984488;28;20520;-85
2021/07/10 04:49:37;;;;;;;10.13;8.77;;;12.30;99.90;;;;;;4984604;28;20050;-85
2021/07/10 04:52:04;;;;;;;10.40;8.05;;;12.30;99.90;;;;;;4984705;28;20077;-85
2021/07/10 04:54:31;;;;;;;10.88;9.48;;;12.30;99.90;;;;;;4984203;28;20135;-85
2021/07/10 04:56:58;;;;;;;11.60;10.50;;;12.30;99.90;;;;;;4982797;28;20058;-85
2021/07/10 04:59:25;;;;;;;14.82;13.32;;;12.40;99.90;;;;;;4985127;28;20054;-85
2021/07/10 05:01:51;;;;;;;17.83;13.70;;;12.50;99.90;;;;;;4984520;28;20101;-85
2021/07/10 05:04:19;;;;;;;15.45;13.95;;;12.70;99.90;;;;;;4985214;28;20115;-85
2021/07/10 05:06:46;;;;;;;17.10;14.32;;;13.10;99.90;;;;;;4983853;28;20059;-85
2021/07/10 05:09:12;;;;;;;15.63;13.07;;;13.30;99.90;;;;;;4984661;28;20051;-85
2021/07/10 05:11:39;;;;;;;18.35;12.30;;;13.50;99.90;;;;;;4986210;28;20142;-85
2021/07/10 05:14:06;;;;;;;6.15;5.72;;;13.80;99.90;;;;;;4981405;28;20051;-84
2021/07/10 05:16:33;;;;;;;6.57;5.97;;;13.80;99.90;;;;;;4981011;28;20146;-84
2021/07/10 05:19:00;;;;;;;9.13;5.88;;;13.90;99.90;;;;;;4980230;28;20057;-85
2021/07/10 05:21:27;;;;;;;6.07;4.70;;;14.00;99.90;;;;;;4979968;28;20051;-85
2021/07/10 05:23:54;;;;;;;5.47;5.07;;;14.60;99.90;;;;;;4978806;28;20101;-85
2021/07/10 05:26:20;;;;;;;4.18;3.35;;;15.50;99.90;;;;;;4977536;28;20081;-85
2021/07/10 05:28:47;;;;;;;5.55;3.20;;;16.70;99.90;;;;;;4978052;28;20584;-85
2021/07/10 05:31:14;;;;;;;4.15;3.40;;;17.30;99.90;;;;;;4978089;28;20105;-85
2021/07/10 05:33:42;;;;;;;4.35;2.53;;;18.20;99.90;;;;;;4977932;28;20070;-85
2021/07/10 05:36:09;;;;;;;2.55;2.35;;;18.50;99.90;;;;;;4979089;28;20057;-86
2021/07/10 05:38:36;;;;;;;3.92;2.25;;;19.50;99.90;;;;;;4985813;28;20065;-85
2021/07/10 05:41:03;;;;;;;3.00;2.72;;;20.50;99.90;;;;;;4986700;28;20081;-85
2021/07/10 05:43:30;;;;;;;1.90;1.75;;;20.80;99.90;;;;;;4988003;28;20510;-86
2021/07/10 05:45:56;;;;;;;2.50;2.08;;;21.60;99.90;;;;;;4987458;28;20078;-85
2021/07/10 05:48:23;;;;;;;6.75;2.00;;;22.40;99.90;;;;;;4985701;28;20055;-86
2021/07/10 05:50:50;;;;;;;2.50;2.10;;;22.90;99.90;;;;;;4986843;28;20078;-85
2021/07/10 05:53:17;;;;;;;5.05;2.00;;;23.60;99.90;;;;;;4986305;28;20062;-86
2021/07/10 05:55:43;;;;;;;3.05;1.75;;;24.00;99.90;;;;;;4988866;28;20085;-85
2021/07/10 05:58:13;;;;;;;7.35;1.80;;;24.30;99.90;;;;;;4988024;28;20054;-86
2021/07/10 06:00:43;;;;;;;9.00;2.15;;;24.60;99.90;;;;;;4987574;28;20061;-85
2021/07/10 06:03:11;;;;;;;11.15;2.88;;;24.70;99.90;;;;;;4983645;28;20081;-86
2021/07/10 06:05:37;;;;;;;7.95;2.42;;;24.20;99.90;;;;;;4980768;28;20046;-86
2021/07/10 06:08:05;;;;;;;10.93;2.40;;;24.10;99.90;;;;;;4981029;28;20043;-86
2021/07/10 06:10:32;;;;;;;8.77;2.15;;;24.00;99.90;;;;;;4978421;28;20055;-86
2021/07/10 06:12:59;;;;;;;9.48;2.55;;;23.70;99.90;;;;;;4980123;28;20109;-86
2021/07/10 06:15:26;;;;;;;9.20;2.00;;;24.00;99.90;;;;;;4980817;28;20046;-86
2021/07/10 06:17:53;;;;;;;3.42;1.40;;;25.50;99.90;;;;;;4980993;28;20086;-86
2021/07/10 06:20:22;;;;;;;5.90;1.30;;;26.40;99.90;;;;;;4979509;28;20455;-86
2021/07/10 06:22:51;;;;;;;3.30;1.45;;;27.20;99.90;;;;;;4977842;28;20057;-86
2021/07/10 06:25:19;;;;;;;2.55;1.52;;;27.50;99.90;;;;;;4974649;28;20047;-86
2021/07/10 06:27:48;;;;;;;2.00;1.35;;;28.10;97.90;;;;;;4975861;28;20093;-86
2021/07/10 06:30:16;;;;;;;2.70;1.40;;;28.40;97.20;;;;;;4975640;28;20083;-86
2021/07/10 06:32:43;;;;;;;2.53;1.50;;;29.00;94.70;;;;;;4975689;28;20145;-86
2021/07/10 06:35:11;;;;;;;3.90;1.27;;;29.40;93.10;;;;;;4976430;28;20058;-86
2021/07/10 06:37:38;;;;;;;5.82;1.63;;;29.70;92.30;;;;;;4976970;28;20054;-86
2021/07/10 06:40:07;;;;;;;2.80;1.17;;;29.70;92.90;;;;;;4978370;28;20237;-86
2021/07/10 06:42:34;;;;;;;1.20;1.10;;;30.20;91.30;;;;;;4975461;28;20412;-86
2021/07/10 06:45:01;;;;;;;2.78;1.60;;;29.50;91.50;;;;;;4976875;28;20057;-86
2021/07/10 06:47:28;;;;;;;1.42;1.30;;;29.80;91.50;;;;;;4974191;28;20057;-86
2021/07/10 06:49:55;;;;;;;3.95;1.48;;;30.50;92.10;;;;;;4974163;28;20055;-86
2021/07/10 06:52:26;;;;;;;3.72;1.25;;;31.10;87.10;;;;;;4973870;28;20050;-86
2021/07/10 06:54:53;;;;;;;2.78;1.23;;;31.00;90.20;;;;;;4974267;28;20054;-85
2021/07/10 06:57:20;;;;;;;3.83;1.67;;;30.50;89.50;;;;;;4975884;28;20081;-84
2021/07/10 06:59:47;;;;;;;4.53;1.27;;;30.10;90.60;;;;;;4978791;28;20097;-84
2021/07/10 07:02:13;;;;;;;6.43;1.63;;;30.20;90.40;;;;;;4977737;28;20093;-85
2021/07/10 07:04:40;;;;;;;2.67;1.48;;;30.60;88.80;;;;;;4977791;28;20412;-85
2021/07/10 07:07:07;;;;;;;4.75;1.50;;;31.00;87.40;;;;;;4989595;28;20073;-85
2021/07/10 07:09:34;;;;;;;1.67;1.17;;;31.50;85.00;;;;;;4989219;28;20074;-85
2021/07/10 07:12:02;;;;;;;2.40;1.33;;;32.70;82.10;;;;;;4990227;28;20051;-85
2021/07/10 07:14:29;;;;;;;1.17;1.10;;;32.20;82.00;;;;;;4990124;28;20089;-86
2021/07/10 07:16:58;;;;;;;1.60;1.30;;;33.40;79.30;;;;;;4992656;28;20081;-85
2021/07/10 07:19:26;;;;;;;1.65;1.48;;;33.50;75.10;;;;;;4990434;28;20173;-85
2021/07/10 07:21:53;;;;;;;4.82;1.73;;;33.60;75.00;;;;;;4987667;28;20125;-85
2021/07/10 07:24:20;;;;;;;1.83;1.27;;;33.20;74.20;;;;;;4985602;28;20074;-86
2021/07/10 07:26:47;;;;;;;4.80;1.67;;;32.80;75.30;;;;;;4988254;28;20081;-85
2021/07/10 07:29:15;;;;;;;2.25;1.20;;;33.30;75.10;;;;;;4987266;28;20094;-86
2021/07/10 07:31:42;;;;;;;1.40;1.33;;;33.60;75.20;;;;;;4986547;28;20051;-86
2021/07/10 07:34:10;;;;;;;1.60;1.50;;;35.00;72.70;;;;;;4987523;28;20051;-85
2021/07/10 07:36:37;;;;;;;1.20;1.20;;;35.80;68.40;;;;;;4989306;28;20062;-85
2021/07/10 07:39:06;;;;;;;1.30;1.20;;;36.20;66.30;;;;;;4989250;28;20070;-84
2021/07/10 07:41:38;;;;;;;1.95;1.17;;;36.30;64.00;;;;;;4990152;28;20062;-85
2021/07/10 07:44:10;;;;;;;1.27;1.27;;;36.50;63.30;;;;;;4991451;28;20059;-84
2021/07/10 07:46:37;;;;;;;3.85;1.52;;;37.00;63.10;;;;;;4989225;28;20046;-85
2021/07/10 07:49:04;;;;;;;1.17;1.17;;;37.30;61.70;;;;;;4990679;28;20043;-84
2021/07/10 07:51:31;;;;;;;1.42;1.33;;;36.90;60.70;;;;;;4990563;28;20054;-85
2021/07/10 07:53:58;;;;;;;1.60;1.50;;;35.90;61.70;;;;;;4985090;28;20050;-85
2021/07/10 07:56:26;;;;;;;1.95;1.25;;;35.80;62.90;;;;;;4982373;28;20058;-85
2021/07/10 07:58:54;;;;;;;2.53;1.80;;;34.70;62.40;;;;;;4985484;28;20171;-86
2021/07/10 08:01:21;;;;;;;1.60;1.50;;;34.30;63.40;;;;;;4988368;28;20058;-86
2021/07/10 08:03:53;;;;;;;1.50;1.50;;;33.60;65.40;;;;;;4986338;28;20047;-85
2021/07/10 08:06:26;;;;;;;1.40;1.30;;;33.10;66.80;;;;;;4988921;28;20138;-86
2021/07/10 08:08:53;;;;;;;1.60;1.50;;;33.20;67.80;;;;;;4983727;28;20074;-85
2021/07/10 08:11:19;;;;;;;1.60;1.50;;;34.60;65.90;;;;;;4982608;28;20551;-86
2021/07/10 08:13:48;;;;;;;1.98;1.88;;;35.00;63.30;;;;;;4982688;28;20063;-86
2021/07/10 08:16:18;;;;;;;1.95;1.80;;;34.60;65.40;;;;;;4983703;28;20488;-86
2021/07/10 08:18:58;;;;;;;1.88;1.67;;;35.50;62.60;;;;;;4982306;28;20245;-86
2021/07/10 08:22:12;;;;;;;1.70;1.60;;;36.50;60.80;;;;;;4983198;28;20134;-86
2021/07/10 08:24:51;;;;;;;1.95;1.50;;;36.60;60.70;;;;;;4930027;29;20047;-86
2021/07/10 08:27:26;;;;;;;3.42;2.00;;;35.90;60.20;;;;;;4926205;29;20099;-86
2021/07/10 08:29:53;;;;;;;2.28;2.08;;;34.70;61.10;;;;;;4956278;28;20097;-87
2021/07/10 08:32:29;;;;;;;3.20;2.25;;;33.10;63.10;;;;;;4975183;28;20147;-86
2021/07/10 08:34:56;;;;;;;1.92;1.80;;;33.10;67.00;;;;;;4975004;28;20505;-87
2021/07/10 08:37:35;;;;;;;2.30;2.00;;;34.30;63.60;;;;;;4974137;28;20058;-86
2021/07/10 08:40:14;;;;;;;1.92;1.80;;;34.60;63.10;;;;;;4974839;28;20055;-87
2021/07/10 08:42:44;;;;;;;2.08;1.98;;;35.20;60.90;;;;;;4974712;28;20141;-86
2021/07/10 08:45:17;;;;;;;2.00;1.90;;;34.60;63.60;;;;;;4974587;28;20054;-85
2021/07/10 08:47:49;;;;;;;2.17;2.00;;;34.20;62.60;;;;;;4974485;28;20444;-86
2021/07/10 08:50:35;;;;;;;2.08;1.73;;;34.00;63.50;;;;;;4975553;28;20046;-87
2021/07/10 08:53:05;;;;;;;3.15;1.63;;;35.20;61.10;;;;;;4976258;28;20077;-86
2021/07/10 08:55:32;;;;;;;3.75;2.13;;;34.90;60.10;;;;;;4975230;28;20061;-87
2021/07/10 08:58:00;;;;;;;4.32;2.28;;;34.80;61.40;;;;;;4977690;28;20539;-86
2021/07/10 09:00:30;;;;;;;2.40;2.20;;;33.80;61.30;;;;;;4978464;28;20081;-86
2021/07/10 09:03:00;;;;;;;2.38;2.17;;;32.40;68.10;;;;;;4978124;28;20468;-86
2021/07/10 09:05:28;;;;;;;2.55;1.80;;;31.40;70.80;;;;;;4976310;28;20058;-86
2021/07/10 09:08:20;;;;;;;3.95;2.20;;;32.90;67.20;;;;;;4975430;28;20130;-86
2021/07/10 09:10:58;;;;;;;2.00;1.90;;;34.50;63.00;;;;;;4975124;28;20130;-86
2021/07/10 09:13:36;;;;;;;4.28;1.42;;;35.10;62.10;;;;;;4975893;28;20503;-87
2021/07/10 09:16:12;;;;;;;2.17;1.88;;;35.60;59.60;;;;;;4976528;28;20097;-86
2021/07/10 09:18:48;;;;;;;1.80;1.70;;;35.50;59.50;;;;;;4980733;28;20074;-87
2021/07/10 09:21:33;;;;;;;2.90;2.05;;;36.00;59.50;;;;;;4976250;28;20579;-85
2021/07/10 09:24:01;;;;;;;2.20;1.90;;;36.60;60.40;;;;;;4974619;28;20508;-85
2021/07/10 09:26:28;;;;;;;2.55;2.10;;;34.80;62.20;;;;;;4974551;28;20141;-85
2021/07/10 09:29:13;;;;;;;2.70;2.50;;;33.60;63.10;;;;;;4974144;28;20118;-87
2021/07/10 09:31:53;;;;;;;2.50;2.30;;;33.50;64.40;;;;;;4974122;28;20543;-85
2021/07/10 09:34:49;;;;;;;2.58;2.38;;;32.00;65.30;;;;;;4974001;28;20412;-85
2021/07/10 09:37:18;;;;;;;2.85;2.10;;;31.20;69.30;;;;;;4973165;28;20051;-84
2021/07/10 09:40:10;;;;;;;4.05;2.40;;;31.80;70.30;;;;;;4976149;28;20133;-84
2021/07/10 09:42:40;;;;;;;3.40;2.22;;;31.00;72.20;;;;;;4976534;28;20051;-84
2021/07/10 09:45:27;;;;;;;2.97;2.10;;;31.40;71.20;;;;;;4976330;28;20114;-83
2021/07/10 09:48:09;;;;;;;3.13;2.10;;;31.10;69.90;;;;;;4974557;28;20105;-86
2021/07/10 09:50:36;;;;;;;4.97;1.83;;;31.70;71.40;;;;;;4975639;28;20133;-85
2021/07/10 09:53:03;;;;;;;1.98;1.88;;;31.60;70.80;;;;;;4975080;28;20110;-86
2021/07/10 09:55:30;;;;;;;2.03;1.92;;;32.60;70.30;;;;;;4975072;28;20051;-84
2021/07/10 09:57:58;;;;;;;1.85;1.75;;;35.10;65.20;;;;;;4973920;28;20137;-87
2021/07/10 10:00:26;;;;;;;3.35;1.80;;;34.50;67.50;;;;;;4973737;28;20062;-86
2021/07/10 10:02:55;;;;;;;2.25;1.70;;;36.50;65.30;;;;;;4974418;28;20057;-85
2021/07/10 10:05:28;;;;;;;10.55;1.70;;;37.30;58.90;;;;;;4974256;28;20066;-84
2021/07/10 10:07:59;;;;;;;2.55;1.92;;;36.00;59.50;;;;;;4975008;28;20082;-86
2021/07/10 10:10:45;;;;;;;9.45;2.42;;;35.00;59.10;;;;;;4975159;28;20042;-90
2021/07/10 10:13:14;;;;;;;8.52;2.97;;;33.20;63.50;;;;;;4975684;28;20047;-87
2021/07/10 10:15:43;;;;;;;2.00;1.80;;;32.60;66.10;;;;;;4973913;28;20500;-85
2021/07/10 10:18:15;;;;;;;5.55;2.20;;;32.70;64.10;;;;;;4973931;28;20078;-88
2021/07/10 10:20:44;;;;;;;10.63;3.63;;;32.40;64.70;;;;;;4974054;28;20081;-90
2021/07/10 10:23:14;;;;;;;6.25;2.55;;;32.00;66.10;;;;;;4974322;28;20589;-87
2021/07/10 10:25:42;;;;;;;5.78;2.35;;;32.00;65.30;;;;;;4975474;28;20050;-85
2021/07/10 10:28:18;;;;;;;3.88;2.20;;;32.50;66.30;;;;;;4976710;28;20098;-88
2021/07/10 10:30:53;;;;;;;3.95;2.88;;;33.30;65.60;;;;;;4974382;28;20051;-85
2021/07/10 10:33:21;;;;;;;3.28;1.70;;;34.20;62.60;;;;;;4979807;28;20047;-87
2021/07/10 10:35:50;;;;;;;3.25;1.92;;;34.80;60.50;;;;;;4979736;28;20054;-88
2021/07/10 10:38:17;;;;;;;1.38;1.38;;;34.90;59.10;;;;;;4981529;28;20130;-89
2021/07/10 10:40:47;;;;;;;1.85;1.63;;;35.20;59.80;;;;;;4977431;28;20109;-90
2021/07/10 10:43:16;;;;;;;1.70;1.60;;;35.70;58.50;;;;;;4977358;28;20051;-87
2021/07/10 10:45:44;;;;;;;3.17;1.38;;;35.70;58.40;;;;;;4977335;28;20133;-87
2021/07/10 10:48:15;;;;;;;1.40;1.30;;;35.90;56.70;;;;;;4979618;28;20089;-85
2021/07/10 10:50:42;;;;;;;4.50;1.77;;;37.30;56.70;;;;;;4981397;28;20070;-85
2021/07/10 10:53:20;;;;;;;1.65;1.40;;;37.30;55.30;;;;;;4981166;28;20074;-86
2021/07/10 10:55:47;;;;;;;3.53;1.70;;;36.90;55.50;;;;;;4980706;28;20062;-84
2021/07/10 10:58:22;;;;;;;1.95;1.42;;;36.40;53.40;;;;;;4981042;28;20051;-84
2021/07/10 11:01:00;;;;;;;1.52;1.42;;;36.70;54.20;;;;;;4977937;28;20074;-84
2021/07/10 11:03:39;;;;;;;2.83;1.10;;;38.40;56.20;;;;;;4979479;28;20051;-87
2021/07/10 11:06:28;;;;;;;2.05;1.95;;;37.70;52.70;;;;;;4979619;28;20129;-85
2021/07/10 11:08:55;;;;;;;6.07;3.10;;;37.40;55.00;;;;;;4978458;28;20074;-86
2021/07/10 11:11:27;;;;;;;2.58;1.83;;;36.60;52.30;;;;;;4977719;28;20101;-87
2021/07/10 11:13:59;;;;;;;1.40;1.30;;;36.90;52.30;;;;;;4977813;28;20050;-88
2021/07/10 11:16:26;;;;;;;4.20;1.92;;;37.00;52.10;;;;;;4979690;28;20058;-87
2021/07/10 11:18:54;;;;;;;1.92;1.08;;;36.50;52.20;;;;;;4980371;28;20054;-85
2021/07/10 11:21:44;;;;;;;2.50;1.27;;;36.50;52.90;;;;;;4980244;28;20058;-90
2021/07/10 11:26:54;;;;;;;4.35;1.42;;;34.10;53.40;;;;;;4980946;28;20517;-84
2021/07/10 11:29:25;;;;;;;3.50;1.52;;;32.30;53.60;;;;;;4977098;28;20085;-90
2021/07/10 11:32:46;;;;;;;4.70;1.90;;;31.30;56.10;;;;;;4978906;28;20125;-88
2021/07/10 11:35:33;;;;;;;2.03;1.13;;;31.30;56.90;;;;;;4975111;28;20085;-87
2021/07/10 11:38:00;;;;;;;3.35;1.42;;;30.00;55.70;;;;;;4977699;28;20133;-91
2021/07/10 11:40:40;;;;;;;2.28;1.70;;;29.20;56.90;;;;;;4978747;28;20522;-90
2021/07/10 11:43:09;;;;;;;5.25;1.77;;;29.10;59.20;;;;;;4979819;28;20051;-89
2021/07/10 11:45:47;;;;;;;2.15;1.40;;;29.30;56.50;;;;;;4981680;28;20054;-88
2021/07/10 11:48:22;;;;;;;1.40;1.30;;;30.10;57.70;;;;;;4980106;28;20054;-89
2021/07/10 11:50:59;;;;;;;3.30;1.20;;;30.10;59.80;;;;;;4978219;28;20120;-89
2021/07/10 11:53:27;;;;;;;1.10;1.10;;;29.60;59.30;;;;;;4977086;28;20141;-88
2021/07/10 11:55:58;;;;;;;5.80;1.73;;;28.80;59.80;;;;;;4978240;28;20078;-90
2021/07/10 11:58:33;;;;;;;12.63;3.60;;;28.00;61.90;;;;;;4981162;28;20086;-90
2021/07/10 12:01:41;;;;;;;2.95;1.60;;;27.60;66.10;;;;;;4977308;28;20054;-86
2021/07/10 12:04:12;;;;;;;2.03;1.35;;;27.80;66.90;;;;;;4977371;28;20057;-88
2021/07/10 12:06:51;;;;;;;3.55;1.30;;;27.70;69.70;;;;;;4979322;28;20113;-89
2021/07/10 12:09:18;;;;;;;7.35;2.97;;;27.30;67.00;;;;;;4976241;28;20130;-88
2021/07/10 12:11:46;;;;;;;10.88;4.30;;;26.80;64.80;;;;;;4978701;28;20133;-84
2021/07/10 12:14:12;;;;;;;3.95;1.50;;;26.60;65.30;;;;;;4982416;28;20051;-82
2021/07/10 12:16:39;;;;;;;2.35;1.10;;;26.40;68.90;;;;;;4979480;28;20583;-83
2021/07/10 12:19:07;;;;;;;2.17;1.30;;;26.00;63.50;;;;;;4975226;28;20068;-88
2021/07/10 12:21:34;;;;;;;1.10;1.10;;;26.00;67.10;;;;;;4977309;28;20058;-86
2021/07/10 12:24:00;;;;;;;1.38;1.38;;;25.90;67.20;;;;;;4976805;28;20137;-89
2021/07/10 12:26:27;;;;;;;1.30;1.20;;;25.80;67.80;;;;;;4976315;28;20051;-87
2021/07/10 12:28:56;;;;;;;1.42;1.33;;;25.60;68.70;;;;;;4976537;28;20088;-87
2021/07/10 12:31:30;;;;;;;1.83;1.73;;;25.50;68.00;;;;;;4976552;28;20621;-88
2021/07/10 12:34:03;;;;;;;3.38;1.60;;;25.40;70.60;;;;;;4977948;28;20042;-86
2021/07/10 12:36:33;;;;;;;2.95;1.52;;;25.20;70.80;;;;;;4975716;28;20097;-86
2021/07/10 12:39:13;;;;;;;8.95;2.20;;;25.10;73.80;;;;;;4977343;28;20485;-84
2021/07/10 12:41:42;;;;;;;6.07;1.92;;;25.10;71.00;;;;;;4976699;28;20559;-85
2021/07/10 12:44:24;;;;;;;8.32;7.53;;;25.00;73.70;;;;;;4976471;28;20493;-89
2021/07/10 12:46:57;;;;;;;3.17;2.97;;;25.20;75.70;;;;;;4975560;28;20062;-89
2021/07/10 12:49:38;;;;;;;7.93;2.25;;;25.50;75.60;;;;;;4975515;28;20101;-87
2021/07/10 12:52:29;;;;;;;2.75;2.00;;;25.50;71.30;;;;;;4976001;28;20133;-88
2021/07/10 12:55:08;;;;;;;1.95;1.45;;;25.50;73.90;;;;;;4957285;28;20061;-89
2021/07/10 12:57:49;;;;;;;1.60;1.50;;;25.50;76.50;;;;;;4974936;28;20124;-87
2021/07/10 13:00:23;;;;;;;2.08;1.30;;;25.70;76.70;;;;;;4975891;28;20416;-86